Time;durP1;ratioP1;P1;durP2;ratioP2;P2;SDS_P1;SDS_P2;PMS_P1;PMS_P2;Temp;Humidity;BMP_temperature;BMP_pressure;BME280_temperature;BME280_humidity;BME280_pressure;Samples;Min_cycle;Max_cycle;Signal;HPM_P1;HPM_P2
2022/09/16 00:00:30;;;;;;;9.85;1.02;;;10.50;99.90;;;;;;5050622;28;20079;-74
2022/09/16 00:02:56;;;;;;;6.60;0.93;;;10.60;99.90;;;;;;5049052;28;20067;-73
2022/09/16 00:05:21;;;;;;;8.35;1.17;;;10.60;99.90;;;;;;5050457;28;20395;-74
2022/09/16 00:07:47;;;;;;;6.22;1.10;;;10.60;99.90;;;;;;5050412;28;20067;-74
2022/09/16 00:10:13;;;;;;;5.40;0.93;;;10.70;99.90;;;;;;5048883;28;20094;-73
2022/09/16 00:12:40;;;;;;;7.25;1.00;;;10.70;99.90;;;;;;5050800;28;20084;-73
2022/09/16 00:15:06;;;;;;;3.05;0.68;;;10.80;99.90;;;;;;5049050;28;20155;-72
2022/09/16 00:17:33;;;;;;;2.20;0.45;;;10.80;99.90;;;;;;5048788;28;20099;-73
2022/09/16 00:19:59;;;;;;;6.43;1.08;;;10.80;99.90;;;;;;5050120;28;20542;-73
2022/09/16 00:22:27;;;;;;;6.82;0.93;;;10.80;99.90;;;;;;5050298;28;20041;-74
2022/09/16 00:24:53;;;;;;;3.95;0.57;;;10.80;99.90;;;;;;5048936;28;20098;-74
2022/09/16 00:27:18;;;;;;;4.85;1.00;;;10.90;99.90;;;;;;5049684;28;20135;-73
2022/09/16 00:29:45;;;;;;;9.43;0.95;;;10.90;99.90;;;;;;5050156;28;20076;-76
2022/09/16 00:32:11;;;;;;;7.82;0.70;;;10.90;99.90;;;;;;5050096;28;20095;-73
2022/09/16 00:34:37;;;;;;;4.28;0.50;;;10.90;99.90;;;;;;5049688;28;20040;-73
2022/09/16 00:37:03;;;;;;;3.63;0.73;;;10.90;99.90;;;;;;5048479;28;20051;-75
2022/09/16 00:39:29;;;;;;;7.13;0.77;;;10.90;99.90;;;;;;5049631;28;20045;-73
2022/09/16 00:41:55;;;;;;;6.30;1.00;;;10.80;99.90;;;;;;5049705;28;20045;-74
2022/09/16 00:44:54;;;;;;;2.88;0.40;;;10.80;99.90;;;;;;5049973;28;20125;-74
2022/09/16 00:47:42;;;;;;;3.65;0.70;;;10.80;99.90;;;;;;5048024;28;20150;-73
2022/09/16 00:50:26;;;;;;;6.60;0.70;;;11.30;99.90;;;;;;5049643;28;20064;-75
2022/09/16 00:52:53;;;;;;;4.53;0.50;;;10.80;99.90;;;;;;5049991;28;20437;-73
2022/09/16 00:55:24;;;;;;;6.68;1.00;;;10.80;99.90;;;;;;5049806;28;20049;-75
2022/09/16 00:57:51;;;;;;;2.63;0.57;;;10.80;99.90;;;;;;5047677;28;20049;-71
2022/09/16 01:00:17;;;;;;;7.03;0.88;;;10.90;99.90;;;;;;5049471;28;20071;-72
2022/09/16 01:02:45;;;;;;;7.22;0.75;;;10.90;99.90;;;;;;5049705;28;20056;-75
2022/09/16 01:05:18;;;;;;;4.43;1.10;;;10.90;99.90;;;;;;5049794;28;20170;-74
2022/09/16 01:07:52;;;;;;;4.85;1.20;;;10.90;99.90;;;;;;5048095;28;20150;-73
2022/09/16 01:10:24;;;;;;;6.35;1.20;;;10.90;99.90;;;;;;5048391;28;20475;-73
2022/09/16 01:13:03;;;;;;;5.53;1.02;;;11.00;99.90;;;;;;5049361;28;20041;-74
2022/09/16 01:15:38;;;;;;;5.70;0.90;;;10.90;99.90;;;;;;5049572;28;20061;-73
2022/09/16 01:18:39;;;;;;;5.10;0.70;;;10.90;99.90;;;;;;5046820;28;20041;-75
2022/09/16 01:21:32;;;;;;;7.07;0.98;;;10.90;99.90;;;;;;5010564;28;20478;-76
2022/09/16 01:24:10;;;;;;;4.50;1.00;;;10.90;99.90;;;;;;5027000;28;20555;-73
2022/09/16 01:27:17;;;;;;;9.15;0.85;;;10.80;99.90;;;;;;5027065;28;20100;-74
2022/09/16 01:29:59;;;;;;;4.22;0.82;;;10.80;99.90;;;;;;4985626;28;20065;-74
2022/09/16 01:32:43;;;;;;;6.13;0.60;;;10.70;99.90;;;;;;4971682;28;20066;-77
2022/09/16 01:35:28;;;;;;;2.30;0.68;;;10.70;99.90;;;;;;4987871;28;20051;-72
2022/09/16 01:38:26;;;;;;;4.75;0.63;;;10.70;99.90;;;;;;4988223;28;20062;-72
2022/09/16 01:40:58;;;;;;;5.07;0.55;;;10.60;99.90;;;;;;4955662;28;20059;-73
2022/09/16 01:43:43;;;;;;;4.82;1.05;;;10.60;99.90;;;;;;4967993;28;20083;-74
2022/09/16 01:46:20;;;;;;;8.38;0.85;;;10.60;99.90;;;;;;4968310;28;20379;-73
2022/09/16 01:49:06;;;;;;;6.40;1.17;;;10.60;99.90;;;;;;4969330;28;20090;-74
2022/09/16 01:52:09;;;;;;;3.90;0.60;;;10.60;99.90;;;;;;4954772;28;20086;-74
2022/09/16 01:54:41;;;;;;;6.65;0.60;;;10.50;99.90;;;;;;4971728;28;20857;-77
2022/09/16 01:57:17;;;;;;;5.03;0.63;;;10.60;99.90;;;;;;4971968;28;20055;-73
2022/09/16 01:59:47;;;;;;;2.80;0.90;;;10.50;99.90;;;;;;4988917;28;20062;-73
2022/09/16 02:02:22;;;;;;;5.45;0.80;;;10.50;99.90;;;;;;4956404;28;20441;-74
2022/09/16 02:04:53;;;;;;;3.63;0.52;;;10.50;99.90;;;;;;4971118;28;20046;-71
2022/09/16 02:07:29;;;;;;;5.45;0.77;;;10.40;99.90;;;;;;5036257;28;20060;-76
2022/09/16 02:10:00;;;;;;;3.80;0.70;;;10.40;99.90;;;;;;5051063;28;20049;-75
2022/09/16 02:12:33;;;;;;;2.90;0.60;;;10.40;99.90;;;;;;5035648;28;20099;-74
2022/09/16 02:15:05;;;;;;;4.53;0.80;;;10.30;99.90;;;;;;5032233;28;20034;-73
2022/09/16 02:17:35;;;;;;;3.28;0.70;;;10.40;99.90;;;;;;5046231;28;20052;-73
2022/09/16 02:20:03;;;;;;;8.68;0.90;;;10.40;99.90;;;;;;5035110;28;20049;-74
2022/09/16 02:22:52;;;;;;;3.03;0.70;;;10.40;99.90;;;;;;5045184;28;20049;-77
2022/09/16 02:25:19;;;;;;;11.43;1.42;;;10.40;99.90;;;;;;5015929;28;20042;-77
2022/09/16 02:27:48;;;;;;;8.90;0.98;;;10.40;99.90;;;;;;5015888;28;20057;-77
2022/09/16 02:30:16;;;;;;;6.38;0.90;;;10.50;99.90;;;;;;5032277;28;20539;-75
2022/09/16 02:32:51;;;;;;;7.70;0.90;;;10.50;99.90;;;;;;5032979;28;20049;-74
2022/09/16 02:35:19;;;;;;;7.90;0.90;;;10.60;99.90;;;;;;5032716;28;20191;-75
2022/09/16 02:37:50;;;;;;;5.95;0.73;;;10.60;99.90;;;;;;5031429;28;20076;-74
2022/09/16 02:40:23;;;;;;;9.70;0.80;;;10.60;99.90;;;;;;5035477;28;20044;-73
2022/09/16 02:42:49;;;;;;;4.65;0.60;;;10.60;99.90;;;;;;5049990;28;20514;-75
2022/09/16 02:45:15;;;;;;;10.32;1.15;;;10.60;99.90;;;;;;5051790;28;20037;-72
2022/09/16 02:48:10;;;;;;;8.27;0.93;;;10.60;99.90;;;;;;5036544;28;20408;-75
2022/09/16 02:51:00;;;;;;;4.72;0.70;;;10.60;99.90;;;;;;4970737;28;20089;-74
2022/09/16 02:53:55;;;;;;;5.63;0.80;;;10.60;99.90;;;;;;4969179;28;20185;-73
2022/09/16 02:56:31;;;;;;;7.53;0.93;;;10.60;99.90;;;;;;4912936;28;20071;-76
2022/09/16 02:58:57;;;;;;;4.93;0.50;;;10.50;99.90;;;;;;4913334;29;20095;-75
2022/09/16 03:01:23;;;;;;;6.10;0.90;;;10.50;99.90;;;;;;4904117;29;20069;-73
2022/09/16 03:03:53;;;;;;;9.48;0.90;;;10.50;99.90;;;;;;4895313;29;20420;-75
2022/09/16 03:06:24;;;;;;;6.30;0.90;;;10.40;99.90;;;;;;4913161;29;20095;-74
2022/09/16 03:08:51;;;;;;;10.75;1.17;;;10.40;99.90;;;;;;4912897;28;20055;-73
2022/09/16 03:11:38;;;;;;;6.97;0.85;;;10.40;99.90;;;;;;4911858;29;20060;-72
2022/09/16 03:14:19;;;;;;;9.90;0.70;;;10.30;99.90;;;;;;4912607;29;20510;-73
2022/09/16 03:16:52;;;;;;;11.07;1.02;;;10.20;99.90;;;;;;4911912;29;20044;-73
2022/09/16 03:19:32;;;;;;;4.88;0.90;;;10.20;99.90;;;;;;4895621;29;20064;-76
2022/09/16 03:22:18;;;;;;;9.32;1.10;;;10.20;99.90;;;;;;4901348;29;20064;-76
2022/09/16 03:25:04;;;;;;;13.07;1.13;;;10.20;99.90;;;;;;4894030;29;20084;-75
2022/09/16 03:27:41;;;;;;;6.57;1.00;;;10.10;99.90;;;;;;4932615;28;20059;-75
2022/09/16 03:30:09;;;;;;;6.72;0.95;;;10.10;99.90;;;;;;4978337;28;20058;-74
2022/09/16 03:32:43;;;;;;;7.72;0.90;;;10.10;99.90;;;;;;5006661;28;20480;-75
2022/09/16 03:35:13;;;;;;;4.38;0.85;;;10.10;99.90;;;;;;5031409;28;20089;-75
2022/09/16 03:37:40;;;;;;;7.40;0.82;;;10.00;99.90;;;;;;5031402;28;20041;-75
2022/09/16 03:40:10;;;;;;;5.07;0.88;;;10.00;99.90;;;;;;5034358;28;20194;-74
2022/09/16 03:42:41;;;;;;;6.25;1.05;;;10.00;99.90;;;;;;5031852;28;20108;-73
2022/09/16 03:45:12;;;;;;;8.15;1.17;;;9.90;99.90;;;;;;5031154;28;20041;-73
2022/09/16 03:47:38;;;;;;;7.85;1.10;;;9.90;99.90;;;;;;5042448;28;20057;-74
2022/09/16 03:50:04;;;;;;;6.43;0.80;;;9.90;99.90;;;;;;5030431;28;20116;-75
2022/09/16 03:52:29;;;;;;;8.60;0.90;;;9.90;99.90;;;;;;5031107;28;20124;-75
2022/09/16 03:54:55;;;;;;;6.68;1.00;;;9.90;99.90;;;;;;5029688;28;20045;-74
2022/09/16 03:57:21;;;;;;;8.50;0.90;;;9.90;99.90;;;;;;5031915;28;20056;-73
2022/09/16 03:59:46;;;;;;;12.15;1.10;;;9.90;99.90;;;;;;5030688;28;20456;-73
2022/09/16 04:02:12;;;;;;;7.93;0.82;;;9.90;99.90;;;;;;5030848;28;20111;-73
2022/09/16 04:04:37;;;;;;;6.70;1.00;;;9.90;99.90;;;;;;5030432;28;20049;-73
2022/09/16 04:07:03;;;;;;;12.48;1.08;;;9.80;99.90;;;;;;5030671;28;20045;-74
2022/09/16 04:09:29;;;;;;;5.38;1.02;;;9.80;99.90;;;;;;5032002;28;20510;-75
2022/09/16 04:11:54;;;;;;;11.15;1.25;;;9.80;99.90;;;;;;5034253;28;20164;-75
2022/09/16 04:14:20;;;;;;;12.63;1.35;;;9.90;99.90;;;;;;5031333;28;20049;-77
2022/09/16 04:16:46;;;;;;;14.93;1.63;;;9.90;99.90;;;;;;5034957;28;20045;-73
2022/09/16 04:19:12;;;;;;;12.30;1.23;;;9.80;99.90;;;;;;5048351;28;20041;-77
2022/09/16 04:21:39;;;;;;;8.00;1.02;;;9.70;99.90;;;;;;5050033;28;20255;-74
2022/09/16 04:24:05;;;;;;;14.63;1.20;;;9.70;99.90;;;;;;5050232;28;20049;-75
2022/09/16 04:26:31;;;;;;;12.77;1.42;;;9.70;99.90;;;;;;5050390;28;20052;-74
2022/09/16 04:28:57;;;;;;;7.95;1.02;;;9.70;99.90;;;;;;5048647;28;20040;-73
2022/09/16 04:31:23;;;;;;;13.07;1.30;;;9.70;99.90;;;;;;5050492;28;20072;-76
2022/09/16 04:33:49;;;;;;;4.97;1.17;;;9.60;99.90;;;;;;5050376;28;20076;-73
2022/09/16 04:36:17;;;;;;;8.30;1.10;;;9.60;99.90;;;;;;5048351;28;20076;-73
2022/09/16 04:38:44;;;;;;;7.72;1.20;;;9.80;99.90;;;;;;5048087;28;20052;-73
2022/09/16 04:41:17;;;;;;;11.15;1.42;;;9.50;99.90;;;;;;5047537;28;20052;-74
2022/09/16 04:43:43;;;;;;;10.63;1.20;;;9.50;99.90;;;;;;5049910;28;20045;-73
2022/09/16 04:46:09;;;;;;;7.75;1.45;;;9.50;99.90;;;;;;5048238;28;20040;-73
2022/09/16 04:48:36;;;;;;;8.07;1.27;;;9.40;99.90;;;;;;5050040;28;20047;-75
2022/09/16 04:51:04;;;;;;;8.30;1.38;;;9.40;99.90;;;;;;5047816;28;20080;-75
2022/09/16 04:53:30;;;;;;;11.43;1.25;;;9.30;99.90;;;;;;5050366;28;20119;-74
2022/09/16 04:56:06;;;;;;;11.82;1.52;;;9.30;99.90;;;;;;5050423;28;20175;-74
2022/09/16 04:58:32;;;;;;;12.48;1.75;;;9.30;99.90;;;;;;5048315;28;20040;-73
2022/09/16 05:01:14;;;;;;;9.18;1.20;;;9.30;99.90;;;;;;5048076;28;20411;-73
2022/09/16 05:03:44;;;;;;;7.63;1.25;;;9.30;99.90;;;;;;5030392;28;20041;-73
2022/09/16 05:06:16;;;;;;;7.20;1.10;;;9.30;99.90;;;;;;5028342;28;20076;-74
2022/09/16 05:08:42;;;;;;;9.23;1.23;;;9.20;99.90;;;;;;5048999;28;20048;-74
2022/09/16 05:11:13;;;;;;;8.57;1.05;;;9.20;99.90;;;;;;5042733;28;20045;-73
2022/09/16 05:13:40;;;;;;;13.50;1.10;;;9.20;99.90;;;;;;5028924;28;20163;-73
2022/09/16 05:16:08;;;;;;;14.40;1.75;;;9.20;99.90;;;;;;5029798;28;20042;-73
2022/09/16 05:18:36;;;;;;;18.40;1.48;;;9.20;99.90;;;;;;5029628;28;20127;-73
2022/09/16 05:21:04;;;;;;;12.75;2.42;;;9.20;99.90;;;;;;5029834;28;20077;-73
2022/09/16 05:23:30;;;;;;;15.27;1.60;;;9.30;99.90;;;;;;5029005;28;20050;-72
2022/09/16 05:26:05;;;;;;;17.58;1.45;;;9.30;99.90;;;;;;5032228;28;20412;-73
2022/09/16 05:28:32;;;;;;;11.18;1.33;;;9.40;99.90;;;;;;5034634;28;20053;-72
2022/09/16 05:31:17;;;;;;;15.68;2.08;;;9.40;99.90;;;;;;5033604;28;20079;-75
2022/09/16 05:33:52;;;;;;;11.00;1.73;;;9.50;99.90;;;;;;5034689;28;20515;-73
2022/09/16 05:36:18;;;;;;;;;;;9.60;99.90;;;;;;5033932;28;20041;-73
2022/09/16 05:38:44;;;;;;;9.10;1.40;;;9.60;99.90;;;;;;5033026;28;19971;-73
2022/09/16 05:41:10;;;;;;;14.10;1.88;;;9.70;99.90;;;;;;5033339;28;20057;-73
2022/09/16 05:43:37;;;;;;;11.68;1.92;;;9.80;99.90;;;;;;5034143;28;20038;-74
2022/09/16 05:46:04;;;;;;;11.73;1.50;;;9.90;99.90;;;;;;5036187;28;20112;-72
2022/09/16 05:48:29;;;;;;;10.13;1.27;;;9.90;99.90;;;;;;5051475;28;20098;-74
2022/09/16 05:50:57;;;;;;;9.82;1.17;;;9.90;99.90;;;;;;5053116;28;20578;-73
2022/09/16 05:53:24;;;;;;;12.98;1.40;;;9.90;99.90;;;;;;5051396;28;20392;-74
2022/09/16 05:56:08;;;;;;;12.15;2.00;;;10.00;99.90;;;;;;5040845;28;20038;-76
2022/09/16 05:58:35;;;;;;;8.88;1.17;;;10.00;99.90;;;;;;5013268;28;20038;-75
2022/09/16 06:01:04;;;;;;;9.75;1.20;;;10.10;99.90;;;;;;5029599;28;20049;-73
2022/09/16 06:03:31;;;;;;;9.23;1.75;;;10.10;99.90;;;;;;5044087;28;20057;-76
2022/09/16 06:06:12;;;;;;;10.82;1.48;;;10.20;99.90;;;;;;5052644;28;20074;-73
2022/09/16 06:08:38;;;;;;;11.35;1.30;;;10.20;99.90;;;;;;5051009;28;20045;-74
2022/09/16 06:11:06;;;;;;;9.70;1.25;;;10.30;99.90;;;;;;5052582;28;20172;-76
2022/09/16 06:13:32;;;;;;;8.48;1.27;;;10.20;99.90;;;;;;5050460;28;20108;-75
2022/09/16 06:15:59;;;;;;;11.40;1.40;;;10.30;99.90;;;;;;5032907;28;20049;-73
2022/09/16 06:18:26;;;;;;;10.30;1.25;;;10.30;99.90;;;;;;5034043;28;20124;-76
2022/09/16 06:20:52;;;;;;;14.52;1.50;;;10.30;99.90;;;;;;5032698;28;20556;-72
2022/09/16 06:23:19;;;;;;;13.48;1.60;;;10.30;99.90;;;;;;5032780;28;20080;-73
2022/09/16 06:25:45;;;;;;;8.30;1.42;;;10.30;99.90;;;;;;5033236;28;20071;-73
2022/09/16 06:28:11;;;;;;;14.05;2.03;;;10.40;99.90;;;;;;5031651;28;20092;-72
2022/09/16 06:30:38;;;;;;;9.10;1.10;;;10.40;99.90;;;;;;5041027;28;20052;-72
2022/09/16 06:33:04;;;;;;;10.90;1.25;;;10.40;99.90;;;;;;5052331;28;20079;-72
2022/09/16 06:35:30;;;;;;;14.07;1.33;;;10.50;99.90;;;;;;5037753;28;20120;-75
2022/09/16 06:37:56;;;;;;;12.38;1.65;;;10.60;99.90;;;;;;5032404;28;20118;-73
2022/09/16 06:40:21;;;;;;;16.55;1.88;;;10.70;99.90;;;;;;5051806;28;20044;-72
2022/09/16 06:42:47;;;;;;;13.35;1.30;;;10.90;99.90;;;;;;5035992;28;20123;-73
2022/09/16 06:45:13;;;;;;;10.40;1.20;;;11.00;99.90;;;;;;5011720;28;20034;-72
2022/09/16 06:47:38;;;;;;;13.50;1.55;;;11.00;99.90;;;;;;5012644;28;20122;-72
2022/09/16 06:50:04;;;;;;;11.20;1.50;;;11.10;99.90;;;;;;5012509;28;20487;-73
2022/09/16 06:52:30;;;;;;;14.55;1.98;;;11.10;99.90;;;;;;5012369;28;20046;-72
2022/09/16 06:54:56;;;;;;;13.45;1.90;;;11.20;99.90;;;;;;5012421;28;20038;-74
2022/09/16 06:57:22;;;;;;;16.23;1.45;;;11.20;99.90;;;;;;5020008;28;20048;-72
2022/09/16 06:59:49;;;;;;;14.93;1.30;;;11.30;99.90;;;;;;5048402;28;20037;-72
2022/09/16 07:02:15;;;;;;;11.38;1.30;;;11.30;99.90;;;;;;5051715;28;20090;-72
2022/09/16 07:04:41;;;;;;;12.90;1.63;;;11.30;99.90;;;;;;5051685;28;20420;-72
2022/09/16 07:07:07;;;;;;;20.85;2.10;;;11.40;99.90;;;;;;5050017;28;20053;-72
2022/09/16 07:09:33;;;;;;;15.57;1.38;;;11.40;99.90;;;;;;5035479;28;20033;-71
2022/09/16 07:11:59;;;;;;;10.27;1.50;;;11.50;99.90;;;;;;5017686;28;20076;-71
2022/09/16 07:14:25;;;;;;;14.63;2.00;;;11.60;99.90;;;;;;5012465;28;20117;-72
2022/09/16 07:16:51;;;;;;;12.43;0.95;;;11.60;99.90;;;;;;5012057;28;20054;-71
2022/09/16 07:19:17;;;;;;;13.02;1.23;;;11.60;99.90;;;;;;5012145;28;20087;-73
2022/09/16 07:21:43;;;;;;;20.13;1.85;;;11.70;99.90;;;;;;5011675;28;20092;-75
2022/09/16 07:24:12;;;;;;;20.25;1.60;;;11.80;99.90;;;;;;5011831;28;20049;-72
2022/09/16 07:26:39;;;;;;;11.23;1.88;;;11.90;99.90;;;;;;5011123;28;20081;-72
2022/09/16 07:29:08;;;;;;;11.45;1.60;;;12.00;99.90;;;;;;5014254;28;20064;-71
2022/09/16 07:31:36;;;;;;;10.02;1.40;;;12.10;99.90;;;;;;5030747;28;20404;-72
2022/09/16 07:34:04;;;;;;;16.65;2.08;;;12.20;99.90;;;;;;5032197;28;20045;-74
2022/09/16 07:36:42;;;;;;;16.90;1.73;;;12.30;99.90;;;;;;5050045;28;20057;-74
2022/09/16 07:39:08;;;;;;;10.60;1.40;;;12.40;99.90;;;;;;5051128;28;20057;-74
2022/09/16 07:41:36;;;;;;;14.70;1.48;;;12.60;99.90;;;;;;5051389;28;20056;-73
2022/09/16 07:44:03;;;;;;;10.75;1.52;;;12.70;99.90;;;;;;5050920;28;20041;-72
2022/09/16 07:46:33;;;;;;;11.02;2.00;;;12.80;99.90;;;;;;5050915;28;20044;-72
2022/09/16 07:49:01;;;;;;;10.88;1.88;;;12.90;99.90;;;;;;5031338;28;20416;-73
2022/09/16 07:51:28;;;;;;;13.90;1.80;;;13.10;99.90;;;;;;5034895;28;20038;-72
2022/09/16 07:53:55;;;;;;;24.50;1.85;;;13.30;99.90;;;;;;5014575;28;20088;-75
2022/09/16 07:56:24;;;;;;;14.98;2.08;;;13.50;99.90;;;;;;5011171;28;20177;-72
2022/09/16 07:58:50;;;;;;;19.42;2.08;;;13.40;99.90;;;;;;5010930;28;20053;-73
2022/09/16 08:01:16;;;;;;;18.52;2.55;;;13.30;99.90;;;;;;5009750;28;20103;-73
2022/09/16 08:03:43;;;;;;;16.27;2.30;;;13.30;99.90;;;;;;5028397;28;20039;-74
2022/09/16 08:06:13;;;;;;;15.23;1.83;;;13.20;99.90;;;;;;5042021;28;20547;-71
2022/09/16 08:08:39;;;;;;;16.45;1.95;;;13.30;99.90;;;;;;5029861;28;20045;-72
2022/09/16 08:11:05;;;;;;;16.13;2.58;;;13.30;99.90;;;;;;5028832;28;20409;-71
2022/09/16 08:13:33;;;;;;;20.75;2.45;;;13.50;99.90;;;;;;5030030;28;20044;-73
2022/09/16 08:16:00;;;;;;;15.15;2.10;;;13.60;99.90;;;;;;5030025;28;20520;-74
2022/09/16 08:18:26;;;;;;;15.00;2.40;;;13.70;99.90;;;;;;5029935;28;20508;-71
2022/09/16 08:20:52;;;;;;;20.40;2.70;;;13.70;99.90;;;;;;5029984;28;20041;-72
2022/09/16 08:23:18;;;;;;;21.90;2.45;;;13.80;99.90;;;;;;5029203;28;20500;-72
2022/09/16 08:25:44;;;;;;;14.80;1.73;;;14.10;99.90;;;;;;5030457;28;20069;-72
2022/09/16 08:28:14;;;;;;;16.38;1.83;;;14.20;99.90;;;;;;5030298;28;20813;-74
2022/09/16 08:30:41;;;;;;;20.15;2.58;;;14.40;99.90;;;;;;5029983;28;20053;-71
2022/09/16 08:33:07;;;;;;;21.20;2.90;;;14.60;99.90;;;;;;5030405;28;20052;-73
2022/09/16 08:35:33;;;;;;;15.43;2.28;;;14.80;99.90;;;;;;5030599;28;20041;-72
2022/09/16 08:37:59;;;;;;;20.70;2.10;;;14.90;99.90;;;;;;5029991;28;20072;-74
2022/09/16 08:40:27;;;;;;;18.80;2.00;;;15.10;99.90;;;;;;5030345;28;20044;-77
2022/09/16 08:43:26;;;;;;;16.27;1.90;;;15.20;99.90;;;;;;5028973;28;20077;-76
2022/09/16 08:45:56;;;;;;;21.00;2.63;;;15.30;99.90;;;;;;5032355;28;20049;-74
2022/09/16 08:48:30;;;;;;;12.75;2.15;;;15.50;99.90;;;;;;5048032;28;20116;-75
2022/09/16 08:50:59;;;;;;;11.73;1.33;;;15.60;99.90;;;;;;5050186;28;20052;-75
2022/09/16 08:53:42;;;;;;;14.73;1.65;;;15.80;99.90;;;;;;5050367;28;20048;-75
2022/09/16 08:56:15;;;;;;;17.52;2.13;;;15.90;99.90;;;;;;5050479;28;20041;-78
2022/09/16 08:58:47;;;;;;;7.55;1.63;;;16.10;99.90;;;;;;5050074;28;20136;-79
2022/09/16 09:01:26;;;;;;;9.80;1.50;;;16.00;99.90;;;;;;5049227;28;20500;-76
2022/09/16 09:03:52;;;;;;;13.00;1.25;;;15.90;99.90;;;;;;5050249;28;20083;-75
2022/09/16 09:06:40;;;;;;;9.02;1.30;;;16.00;99.90;;;;;;5050234;28;20051;-74
2022/09/16 09:09:24;;;;;;;12.10;2.08;;;16.10;99.90;;;;;;5050257;28;20044;-75
2022/09/16 09:12:02;;;;;;;13.75;1.67;;;16.10;99.90;;;;;;5050051;28;20531;-75
2022/09/16 09:14:51;;;;;;;13.10;1.45;;;16.20;99.90;;;;;;5044422;28;20046;-77
2022/09/16 09:17:23;;;;;;;17.45;2.03;;;16.30;99.90;;;;;;5028141;28;20072;-75
2022/09/16 09:19:58;;;;;;;18.73;2.35;;;16.30;99.90;;;;;;5029851;28;20045;-75
2022/09/16 09:23:16;;;;;;;10.55;1.83;;;16.40;99.90;;;;;;5030190;28;20052;-74
2022/09/16 09:25:56;;;;;;;14.73;2.15;;;16.70;99.90;;;;;;4992315;28;20085;-75
2022/09/16 09:28:37;;;;;;;15.18;1.63;;;16.90;99.90;;;;;;4987483;28;20445;-78
2022/09/16 09:31:32;;;;;;;8.70;1.55;;;17.00;99.90;;;;;;4988035;28;20046;-75
2022/09/16 09:34:30;;;;;;;11.40;1.88;;;17.20;99.90;;;;;;4988406;28;20042;-78
2022/09/16 09:37:07;;;;;;;18.83;2.53;;;17.10;99.90;;;;;;4987768;28;20116;-75
2022/09/16 09:39:43;;;;;;;13.55;1.58;;;16.60;99.90;;;;;;4988352;28;20094;-76
2022/09/16 09:42:23;;;;;;;15.15;1.98;;;16.30;99.90;;;;;;4987842;28;20116;-76
2022/09/16 09:44:57;;;;;;;16.92;2.63;;;16.50;99.90;;;;;;4987835;28;20042;-76
2022/09/16 09:47:29;;;;;;;14.77;1.80;;;16.70;99.90;;;;;;4987124;28;20105;-77
2022/09/16 09:49:57;;;;;;;10.13;1.58;;;17.00;99.90;;;;;;4987906;28;20070;-77
2022/09/16 09:52:43;;;;;;;11.20;1.40;;;16.90;99.90;;;;;;4971781;28;20096;-75
2022/09/16 09:55:20;;;;;;;10.10;1.65;;;16.70;99.90;;;;;;4968108;28;20113;-75
2022/09/16 09:58:04;;;;;;;8.43;1.70;;;16.80;99.90;;;;;;4985368;28;20477;-74
2022/09/16 10:00:30;;;;;;;10.05;1.52;;;16.90;99.90;;;;;;4993911;28;20045;-77
2022/09/16 10:03:17;;;;;;;19.33;1.70;;;17.00;99.90;;;;;;5029058;28;20041;-77
2022/09/16 10:05:45;;;;;;;16.38;2.15;;;17.10;99.90;;;;;;5029340;28;20045;-79
2022/09/16 10:08:20;;;;;;;11.68;1.92;;;17.00;99.90;;;;;;5029355;28;20129;-79
2022/09/16 10:10:53;;;;;;;23.50;3.03;;;16.80;99.90;;;;;;5029965;28;20117;-77
2022/09/16 10:13:21;;;;;;;15.35;1.60;;;16.50;99.90;;;;;;5039893;28;20049;-77
2022/09/16 10:15:48;;;;;;;8.23;1.83;;;16.20;99.90;;;;;;5052716;28;20045;-78
2022/09/16 10:18:30;;;;;;;20.55;1.58;;;15.80;99.90;;;;;;5052585;28;20045;-78
2022/09/16 10:21:09;;;;;;;19.70;2.55;;;16.00;99.90;;;;;;5050831;28;20045;-78
2022/09/16 10:23:35;;;;;;;8.63;1.33;;;16.30;99.90;;;;;;5052740;28;20049;-76
2022/09/16 10:26:23;;;;;;;7.75;1.30;;;16.60;99.90;;;;;;5052622;28;20040;-78
2022/09/16 10:28:58;;;;;;;8.48;1.30;;;17.00;99.90;;;;;;5052448;28;20060;-76
2022/09/16 10:31:26;;;;;;;11.20;1.35;;;17.00;99.90;;;;;;5051531;28;21011;-72
2022/09/16 10:33:52;;;;;;;7.30;1.20;;;17.10;99.90;;;;;;5052256;28;20040;-73
2022/09/16 10:36:22;;;;;;;9.25;1.45;;;17.10;99.90;;;;;;5052367;28;20064;-76
2022/09/16 10:38:52;;;;;;;13.15;1.92;;;17.50;99.90;;;;;;5052353;28;20450;-75
2022/09/16 10:41:24;;;;;;;8.38;1.48;;;17.40;99.90;;;;;;5050777;28;20069;-74
2022/09/16 10:43:57;;;;;;;10.20;1.30;;;16.70;99.90;;;;;;5041728;28;20069;-74
2022/09/16 10:46:24;;;;;;;9.43;1.58;;;16.30;99.90;;;;;;5030882;28;20045;-75
2022/09/16 10:48:52;;;;;;;9.27;1.17;;;15.90;99.90;;;;;;5032118;28;20052;-73
2022/09/16 10:51:25;;;;;;;15.25;1.73;;;15.70;99.90;;;;;;5032653;28;20535;-73
2022/09/16 10:53:57;;;;;;;7.38;1.17;;;16.10;99.90;;;;;;5032207;28;20057;-73
2022/09/16 10:56:32;;;;;;;12.00;1.67;;;16.40;99.90;;;;;;5031997;28;20481;-74
2022/09/16 10:59:01;;;;;;;;;;;16.50;99.90;;;;;;5032595;28;20053;-73
2022/09/16 11:01:47;;;;;;;19.88;1.88;;;16.50;99.90;;;;;;5035250;28;19931;-75
2022/09/16 11:04:34;;;;;;;12.20;1.42;;;16.80;99.90;;;;;;5031971;28;20044;-74
2022/09/16 11:07:23;;;;;;;17.75;1.83;;;17.00;99.90;;;;;;5031537;28;20488;-76
2022/09/16 11:10:10;;;;;;;16.55;1.27;;;17.20;99.90;;;;;;5030585;28;20041;-75
2022/09/16 11:13:06;;;;;;;12.85;1.60;;;17.30;99.90;;;;;;5030881;28;20053;-74
2022/09/16 11:15:31;;;;;;;12.43;1.50;;;17.30;99.90;;;;;;5030810;28;20442;-79
2022/09/16 11:18:24;;;;;;;10.43;1.10;;;17.10;99.90;;;;;;5032037;28;20128;-77
2022/09/16 11:21:08;;;;;;;8.68;1.15;;;16.80;99.90;;;;;;5030291;28;20095;-77
2022/09/16 11:24:09;;;;;;;14.27;2.45;;;16.50;99.90;;;;;;5031432;28;20083;-75
2022/09/16 11:26:53;;;;;;;8.07;1.50;;;16.70;99.90;;;;;;5009158;28;20096;-77
2022/09/16 11:29:47;;;;;;;8.43;1.30;;;16.90;99.90;;;;;;4976114;28;20521;-79
2022/09/16 11:32:18;;;;;;;10.32;1.35;;;17.20;99.90;;;;;;4989102;28;20038;-74
2022/09/16 11:34:58;;;;;;;12.52;1.50;;;17.10;99.90;;;;;;5003171;28;20632;-74
2022/09/16 11:37:50;;;;;;;12.45;1.90;;;16.80;99.40;;;;;;5008764;28;20050;-73
2022/09/16 11:40:27;;;;;;;17.65;1.95;;;16.60;99.90;;;;;;5008772;28;20651;-77
2022/09/16 11:43:04;;;;;;;12.10;1.90;;;16.40;99.90;;;;;;4996810;28;20129;-77
2022/09/16 11:45:59;;;;;;;9.80;1.60;;;16.40;99.90;;;;;;4989492;28;20074;-77
2022/09/16 11:48:52;;;;;;;21.48;2.25;;;16.60;99.90;;;;;;4972021;28;20117;-76
2022/09/16 11:51:30;;;;;;;17.80;1.70;;;16.60;99.90;;;;;;4989276;28;20513;-75
2022/09/16 11:54:20;;;;;;;16.70;1.75;;;16.80;99.90;;;;;;4988930;28;20069;-76
2022/09/16 11:56:51;;;;;;;6.75;1.42;;;16.70;99.20;;;;;;4992262;28;20105;-78
2022/09/16 11:59:27;;;;;;;14.13;1.60;;;16.70;99.80;;;;;;5008819;28;20050;-77
2022/09/16 12:02:14;;;;;;;13.77;1.75;;;16.60;99.30;;;;;;5009637;28;20096;-73
2022/09/16 12:04:50;;;;;;;13.75;2.13;;;16.60;99.50;;;;;;5025343;28;20439;-75
2022/09/16 12:07:32;;;;;;;14.27;1.80;;;16.80;99.90;;;;;;5030195;28;20045;-76
2022/09/16 12:10:22;;;;;;;14.80;2.08;;;17.00;99.30;;;;;;5030696;28;20045;-76
2022/09/16 12:13:06;;;;;;;18.67;2.50;;;17.30;99.70;;;;;;5031042;28;20124;-75
2022/09/16 12:15:54;;;;;;;24.77;2.42;;;17.40;99.00;;;;;;5029145;28;20049;-75
2022/09/16 12:18:48;;;;;;;13.75;2.42;;;17.20;97.70;;;;;;5030668;28;20053;-78
2022/09/16 12:21:21;;;;;;;18.00;2.13;;;17.30;98.50;;;;;;5030750;28;20057;-76
2022/09/16 12:24:04;;;;;;;17.50;2.40;;;17.00;98.80;;;;;;5028786;28;20714;-75
2022/09/16 12:26:35;;;;;;;15.40;2.55;;;16.70;99.90;;;;;;5032539;28;20060;-73
2022/09/16 12:29:11;;;;;;;20.20;2.55;;;16.70;99.90;;;;;;5049755;28;20123;-72
2022/09/16 12:31:52;;;;;;;15.32;1.77;;;16.70;99.90;;;;;;5039310;28;20045;-75
2022/09/16 12:34:25;;;;;;;15.93;2.13;;;16.70;99.90;;;;;;5029928;28;20256;-74
2022/09/16 12:37:10;;;;;;;13.35;2.17;;;16.90;99.90;;;;;;5030455;28;20081;-76
2022/09/16 12:39:35;;;;;;;15.75;2.25;;;17.00;99.90;;;;;;5029895;28;20455;-75
2022/09/16 12:42:29;;;;;;;18.85;2.85;;;17.00;99.90;;;;;;5039135;28;20136;-74
2022/09/16 12:45:25;;;;;;;15.88;2.58;;;16.90;99.90;;;;;;5049872;28;20041;-76
2022/09/16 12:48:01;;;;;;;12.35;2.15;;;16.80;99.80;;;;;;5048101;28;20500;-74
2022/09/16 12:50:48;;;;;;;12.18;2.00;;;17.10;99.90;;;;;;5031664;28;20044;-77
2022/09/16 12:53:39;;;;;;;20.10;2.72;;;17.10;99.90;;;;;;5030132;28;20053;-78
2022/09/16 12:56:56;;;;;;;12.63;2.38;;;17.10;99.90;;;;;;5029771;28;20490;-76
2022/09/16 12:59:44;;;;;;;20.33;2.58;;;17.20;99.90;;;;;;5007570;28;20068;-77
2022/09/16 13:02:16;;;;;;;10.48;1.65;;;17.20;99.90;;;;;;5006982;28;20476;-74
2022/09/16 13:04:46;;;;;;;10.25;1.40;;;17.10;99.90;;;;;;5007353;28;20064;-78
2022/09/16 13:07:32;;;;;;;8.55;1.60;;;17.20;99.90;;;;;;5007635;28;20437;-75
2022/09/16 13:10:14;;;;;;;8.15;1.10;;;17.00;99.90;;;;;;5006976;28;20140;-77
2022/09/16 13:12:40;;;;;;;5.72;0.75;;;16.80;99.90;;;;;;5007373;28;20120;-78
2022/09/16 13:15:07;;;;;;;6.10;0.88;;;16.70;99.90;;;;;;5007407;28;20057;-79